Time;durP1;ratioP1;P1;durP2;ratioP2;P2;SDS_P1;SDS_P2;PMS_P1;PMS_P2;Temp;Humidity;BMP_temperature;BMP_pressure;BME280_temperature;BME280_humidity;BME280_pressure;Samples;Min_cycle;Max_cycle;Signal;HPM_P1;HPM_P2
2024/04/16 00:03:34;;;;;;;0.20;0.10;;;;;;;;;;11043145;26;20005;-78
2024/04/16 00:08:41;;;;;;;0.10;0.10;;;;;;;;;;11043948;26;20060;-78
2024/04/16 00:13:46;;;;;;;0.40;0.15;;;;;;;;;;11030227;26;20001;-76
2024/04/16 00:18:50;;;;;;;1.05;0.20;;;;;;;;;;11034297;26;21101;-76
2024/04/16 00:23:57;;;;;;;0.22;0.22;;;;;;;;;;11031975;26;20023;-77
2024/04/16 00:29:02;;;;;;;0.40;0.15;;;;;;;;;;11024362;26;20032;-77
2024/04/16 00:34:07;;;;;;;0.28;0.22;;;;;;;;;;11043777;26;20008;-77
2024/04/16 00:39:14;;;;;;;0.30;0.20;;;;;;;;;;11043207;26;20085;-77
2024/04/16 00:44:19;;;;;;;1.23;0.30;;;;;;;;;;11037210;26;20036;-78
2024/04/16 00:49:24;;;;;;;0.77;0.10;;;;;;;;;;11036407;26;20000;-77
2024/04/16 00:54:31;;;;;;;0.10;0.10;;;;;;;;;;11031974;26;20477;-77
2024/04/16 00:59:37;;;;;;;0.25;0.20;;;;;;;;;;11015410;26;19996;-78
2024/04/16 01:04:42;;;;;;;0.10;0.10;;;;;;;;;;11031121;26;19997;-77
2024/04/16 01:09:49;;;;;;;0.30;0.13;;;;;;;;;;11036987;26;20005;-76
2024/04/16 01:14:54;;;;;;;0.13;0.13;;;;;;;;;;11030202;26;20044;-77
2024/04/16 01:19:59;;;;;;;2.25;0.20;;;;;;;;;;11041255;26;20103;-78
2024/04/16 01:25:06;;;;;;;2.42;0.30;;;;;;;;;;11037284;26;20008;-78
2024/04/16 01:30:11;;;;;;;1.55;0.30;;;;;;;;;;11041705;26;20006;-80
2024/04/16 01:35:19;;;;;;;1.65;0.22;;;;;;;;;;11036768;26;20008;-77
2024/04/16 01:40:26;;;;;;;0.40;0.20;;;;;;;;;;11040404;26;20094;-76
2024/04/16 01:45:31;;;;;;;0.32;0.20;;;;;;;;;;11019258;26;19997;-79
2024/04/16 01:50:38;;;;;;;1.83;0.15;;;;;;;;;;11042474;26;19992;-80
2024/04/16 01:55:45;;;;;;;0.10;0.10;;;;;;;;;;11089442;26;20021;-79
2024/04/16 02:00:49;;;;;;;0.17;0.10;;;;;;;;;;11081140;26;20179;-80
2024/04/16 02:05:57;;;;;;;1.02;0.20;;;;;;;;;;11055675;26;20100;-80
2024/04/16 02:11:05;;;;;;;0.60;0.28;;;;;;;;;;11030464;26;20017;-80
2024/04/16 02:16:10;;;;;;;0.10;0.10;;;;;;;;;;11029041;26;20001;-79
2024/04/16 02:21:15;;;;;;;0.73;0.10;;;;;;;;;;11032402;26;20457;-79
2024/04/16 02:26:22;;;;;;;0.05;0.00;;;;;;;;;;11025000;26;20040;-77
2024/04/16 02:31:30;;;;;;;0.28;0.10;;;;;;;;;;11000363;26;20017;-78
2024/04/16 02:36:35;;;;;;;0.20;0.10;;;;;;;;;;11029314;26;20005;-78
2024/04/16 02:41:43;;;;;;;1.80;0.20;;;;;;;;;;11028861;26;20502;-77
2024/04/16 02:46:47;;;;;;;0.60;0.30;;;;;;;;;;11028741;26;20700;-77
2024/04/16 02:51:52;;;;;;;0.50;0.40;;;;;;;;;;11021216;26;20020;-77
2024/04/16 02:57:01;;;;;;;0.90;0.35;;;;;;;;;;11034532;26;20001;-77
2024/04/16 03:02:05;;;;;;;2.13;0.50;;;;;;;;;;11032485;26;20683;-78
2024/04/16 03:07:10;;;;;;;1.40;0.63;;;;;;;;;;11033026;26;20073;-77
2024/04/16 03:12:17;;;;;;;0.52;0.50;;;;;;;;;;11040041;26;20484;-77
2024/04/16 03:17:21;;;;;;;3.67;0.75;;;;;;;;;;11037902;26;20017;-77
2024/04/16 03:22:27;;;;;;;1.88;0.50;;;;;;;;;;11031314;26;20016;-78
2024/04/16 03:27:34;;;;;;;4.53;0.95;;;;;;;;;;11045643;26;20383;-75
2024/04/16 03:32:39;;;;;;;1.17;0.60;;;;;;;;;;11016977;26;20588;-77
2024/04/16 03:37:47;;;;;;;2.15;0.68;;;;;;;;;;11036629;26;20006;-78
2024/04/16 03:42:55;;;;;;;4.57;0.43;;;;;;;;;;11039235;26;20004;-78
2024/04/16 03:48:00;;;;;;;1.17;0.50;;;;;;;;;;11028699;26;20008;-78
2024/04/16 03:53:07;;;;;;;2.40;0.63;;;;;;;;;;11043275;26;20013;-77
2024/04/16 03:58:14;;;;;;;2.00;0.75;;;;;;;;;;11041857;26;20112;-76
2024/04/16 04:03:19;;;;;;;1.60;0.50;;;;;;;;;;11044566;26;20523;-77
2024/04/16 04:08:24;;;;;;;1.17;0.50;;;;;;;;;;11036356;26;20001;-77
2024/04/16 04:13:31;;;;;;;0.95;0.50;;;;;;;;;;11050133;26;20011;-75
2024/04/16 04:18:36;;;;;;;1.05;0.68;;;;;;;;;;11033550;26;20073;-75
2024/04/16 04:23:40;;;;;;;1.75;0.60;;;;;;;;;;11050119;26;20004;-78
2024/04/16 04:28:48;;;;;;;1.02;0.60;;;;;;;;;;11032436;26;20025;-78
2024/04/16 04:33:52;;;;;;;1.17;0.60;;;;;;;;;;11040544;26;20001;-78
2024/04/16 04:38:57;;;;;;;0.40;0.38;;;;;;;;;;11048168;26;20032;-78
2024/04/16 04:44:04;;;;;;;1.42;0.50;;;;;;;;;;11034379;26;20009;-79
2024/04/16 04:49:08;;;;;;;1.00;0.55;;;;;;;;;;11043078;26;20008;-80
2024/04/16 04:54:13;;;;;;;7.15;0.60;;;;;;;;;;11041958;26;20024;-80
2024/04/16 04:59:20;;;;;;;0.90;0.43;;;;;;;;;;11037033;26;20017;-78
2024/04/16 05:04:25;;;;;;;1.25;0.68;;;;;;;;;;11030094;26;20049;-79
2024/04/16 05:09:35;;;;;;;5.90;0.60;;;;;;;;;;11038506;26;20009;-78
2024/04/16 05:14:43;;;;;;;1.08;0.45;;;;;;;;;;10999764;26;20512;-79
2024/04/16 05:19:48;;;;;;;0.98;0.40;;;;;;;;;;11043690;26;20016;-75
2024/04/16 05:24:52;;;;;;;1.25;0.70;;;;;;;;;;11040437;26;20000;-78
2024/04/16 05:30:01;;;;;;;3.22;0.73;;;;;;;;;;11038421;26;20011;-77
2024/04/16 05:35:09;;;;;;;0.90;0.43;;;;;;;;;;11008790;26;20120;-76
2024/04/16 05:40:16;;;;;;;1.38;0.55;;;;;;;;;;11040310;26;20608;-78
2024/04/16 05:45:23;;;;;;;2.85;0.90;;;;;;;;;;11035598;26;20021;-77
2024/04/16 05:50:29;;;;;;;0.47;0.40;;;;;;;;;;11035474;26;20575;-76
2024/04/16 05:55:35;;;;;;;0.75;0.30;;;;;;;;;;11042114;26;20128;-77
2024/04/16 06:00:42;;;;;;;0.25;0.25;;;;;;;;;;11036405;26;20453;-77
2024/04/16 06:05:47;;;;;;;1.00;0.50;;;;;;;;;;11006249;26;20005;-77
2024/04/16 06:10:51;;;;;;;0.65;0.13;;;;;;;;;;11042506;26;20009;-78
2024/04/16 06:16:01;;;;;;;0.88;0.43;;;;;;;;;;11027991;26;20002;-78
2024/04/16 06:21:06;;;;;;;0.80;0.32;;;;;;;;;;11026830;26;19997;-77
2024/04/16 06:26:12;;;;;;;0.30;0.30;;;;;;;;;;11032930;26;20461;-77
2024/04/16 06:31:26;;;;;;;3.00;0.55;;;;;;;;;;11015929;26;20020;-76
2024/04/16 06:36:31;;;;;;;0.38;0.22;;;;;;;;;;11038971;26;20001;-77
2024/04/16 06:41:35;;;;;;;0.52;0.20;;;;;;;;;;10998302;26;20023;-77
2024/04/16 06:46:45;;;;;;;0.40;0.40;;;;;;;;;;11041426;26;20016;-75
2024/04/16 06:51:50;;;;;;;0.45;0.30;;;;;;;;;;11010956;26;20073;-77
2024/04/16 06:56:55;;;;;;;1.00;0.13;;;;;;;;;;11035515;26;20046;-77
2024/04/16 07:02:02;;;;;;;0.40;0.40;;;;;;;;;;11044599;26;20016;-76
2024/04/16 07:07:07;;;;;;;0.20;0.20;;;;;;;;;;11043813;26;20017;-76
2024/04/16 07:12:13;;;;;;;0.30;0.30;;;;;;;;;;11039674;26;20639;-75
2024/04/16 07:17:20;;;;;;;0.73;0.25;;;;;;;;;;11030214;26;20001;-77
2024/04/16 07:22:24;;;;;;;0.35;0.30;;;;;;;;;;11030545;26;20001;-77
2024/04/16 07:27:29;;;;;;;0.20;0.20;;;;;;;;;;11032853;26;20457;-76
2024/04/16 07:32:38;;;;;;;0.93;0.40;;;;;;;;;;11038370;26;20018;-77
2024/04/16 07:37:43;;;;;;;1.38;0.50;;;;;;;;;;11044789;26;20139;-78
2024/04/16 07:42:47;;;;;;;2.10;0.30;;;;;;;;;;11036950;26;20783;-76
2024/04/16 07:47:56;;;;;;;2.63;0.90;;;;;;;;;;11002082;26;19997;-77
2024/04/16 07:53:01;;;;;;;0.60;0.50;;;;;;;;;;11030395;26;20036;-77
2024/04/16 07:58:07;;;;;;;0.95;0.50;;;;;;;;;;11045201;26;20005;-75
2024/04/16 08:03:14;;;;;;;2.17;0.65;;;;;;;;;;11039445;26;20351;-76
2024/04/16 08:08:19;;;;;;;6.88;0.52;;;;;;;;;;11043474;26;20083;-77
2024/04/16 08:13:36;;;;;;;3.67;0.70;;;;;;;;;;11024470;26;20105;-76
2024/04/16 08:18:43;;;;;;;2.13;0.30;;;;;;;;;;11005461;26;20012;-76
2024/04/16 08:23:48;;;;;;;0.82;0.40;;;;;;;;;;11026444;26;20013;-76
2024/04/16 08:28:54;;;;;;;0.65;0.65;;;;;;;;;;11004003;26;20001;-76
2024/04/16 08:34:02;;;;;;;0.73;0.73;;;;;;;;;;11044857;26;20009;-79
2024/04/16 08:39:08;;;;;;;1.52;1.00;;;;;;;;;;11037803;26;20058;-79
2024/04/16 08:44:14;;;;;;;1.15;0.90;;;;;;;;;;11038874;26;20005;-78
2024/04/16 08:49:23;;;;;;;0.60;0.60;;;;;;;;;;11030235;26;20419;-78
2024/04/16 08:54:30;;;;;;;1.58;0.57;;;;;;;;;;11040207;26;20017;-78
2024/04/16 08:59:34;;;;;;;1.88;0.80;;;;;;;;;;11039951;26;20005;-77
2024/04/16 09:04:41;;;;;;;3.60;0.60;;;;;;;;;;11040311;26;20120;-79
2024/04/16 09:09:46;;;;;;;1.63;1.00;;;;;;;;;;11043664;26;20549;-77
2024/04/16 09:14:53;;;;;;;3.25;0.88;;;;;;;;;;11032669;26;20101;-76
2024/04/16 09:20:05;;;;;;;1.63;0.40;;;;;;;;;;11030121;26;20136;-77
2024/04/16 09:25:14;;;;;;;1.38;0.80;;;;;;;;;;11031837;26;20036;-77
2024/04/16 09:30:19;;;;;;;1.30;1.20;;;;;;;;;;11038599;26;20005;-77
2024/04/16 09:35:29;;;;;;;5.20;1.13;;;;;;;;;;11024942;26;20001;-75
2024/04/16 09:40:34;;;;;;;1.58;1.15;;;;;;;;;;11023991;26;20434;-76
2024/04/16 09:45:40;;;;;;;3.85;1.13;;;;;;;;;;11006262;26;20482;-76
2024/04/16 09:50:51;;;;;;;5.80;1.25;;;;;;;;;;11028408;26;20009;-76
2024/04/16 09:56:00;;;;;;;4.50;2.60;;;;;;;;;;11000524;26;20013;-77
2024/04/16 10:01:06;;;;;;;3.83;1.13;;;;;;;;;;11034561;26;20345;-77
2024/04/16 10:06:24;;;;;;;4.03;1.50;;;;;;;;;;11044871;26;20353;-79
2024/04/16 10:11:31;;;;;;;7.05;1.90;;;;;;;;;;11008362;26;20445;-78
2024/04/16 10:16:36;;;;;;;3.35;1.60;;;;;;;;;;11046065;26;20025;-78
2024/04/16 10:21:48;;;;;;;6.25;1.30;;;;;;;;;;11029794;26;20012;-78
2024/04/16 10:26:53;;;;;;;2.80;0.82;;;;;;;;;;11018917;26;20016;-78
2024/04/16 10:32:00;;;;;;;1.77;1.20;;;;;;;;;;11047011;26;20006;-78
2024/04/16 10:37:11;;;;;;;2.63;1.17;;;;;;;;;;11058372;26;21166;-80
2024/04/16 10:42:19;;;;;;;1.98;0.98;;;;;;;;;;11026513;26;20023;-79
2024/04/16 10:47:27;;;;;;;1.45;0.80;;;;;;;;;;11023857;26;20016;-78
2024/04/16 10:52:34;;;;;;;2.35;1.02;;;;;;;;;;11057373;26;20361;-78
2024/04/16 10:57:44;;;;;;;2.05;0.80;;;;;;;;;;11046313;26;20451;-77
2024/04/16 11:02:50;;;;;;;3.85;0.88;;;;;;;;;;11045497;26;20000;-77
2024/04/16 11:07:58;;;;;;;2.45;0.80;;;;;;;;;;11051832;26;20043;-77
2024/04/16 11:13:04;;;;;;;1.50;0.82;;;;;;;;;;11039049;26;20115;-78
2024/04/16 11:18:10;;;;;;;1.95;0.88;;;;;;;;;;11035975;26;20063;-77
2024/04/16 11:23:18;;;;;;;1.58;1.10;;;;;;;;;;11036050;26;20012;-77
2024/04/16 11:28:23;;;;;;;2.47;1.00;;;;;;;;;;10999964;26;20024;-76
2024/04/16 11:33:28;;;;;;;0.82;0.60;;;;;;;;;;11047093;26;20009;-78
2024/04/16 11:38:44;;;;;;;1.90;0.83;;;;;;;;;;11029185;26;20474;-77
2024/04/16 11:43:52;;;;;;;3.75;1.00;;;;;;;;;;11037029;26;20262;-78
2024/04/16 11:48:57;;;;;;;2.78;1.00;;;;;;;;;;11039811;26;20017;-78
2024/04/16 11:54:08;;;;;;;3.00;0.80;;;;;;;;;;11036847;26;20144;-78
2024/04/16 11:59:12;;;;;;;4.20;0.90;;;;;;;;;;11037968;26;20013;-77
2024/04/16 12:04:18;;;;;;;4.25;0.85;;;;;;;;;;11033798;26;20131;-78
2024/04/16 12:09:31;;;;;;;1.90;0.75;;;;;;;;;;11022340;26;20405;-78
2024/04/16 12:14:37;;;;;;;1.75;0.85;;;;;;;;;;11033609;26;20079;-78
2024/04/16 12:19:42;;;;;;;3.33;0.85;;;;;;;;;;11009776;26;20012;-78
2024/04/16 12:24:50;;;;;;;4.18;1.13;;;;;;;;;;11040209;26;19996;-77
2024/04/16 12:29:55;;;;;;;2.97;1.08;;;;;;;;;;11030205;26;20065;-78
2024/04/16 12:35:04;;;;;;;3.00;0.88;;;;;;;;;;11030473;26;20027;-77
2024/04/16 12:40:19;;;;;;;4.85;1.30;;;;;;;;;;11030684;26;20016;-78
2024/04/16 12:45:28;;;;;;;3.95;1.00;;;;;;;;;;11034882;26;20016;-78
2024/04/16 12:50:34;;;;;;;8.05;0.70;;;;;;;;;;11027314;26;20011;-79
2024/04/16 12:55:44;;;;;;;1.95;0.75;;;;;;;;;;11046103;26;20005;-78
2024/04/16 13:00:53;;;;;;;1.80;1.17;;;;;;;;;;11028275;26;20008;-77
2024/04/16 13:05:58;;;;;;;1.33;0.90;;;;;;;;;;11030335;26;20013;-78
2024/04/16 13:11:05;;;;;;;2.22;1.00;;;;;;;;;;11031531;26;20016;-77
2024/04/16 13:16:10;;;;;;;0.98;0.50;;;;;;;;;;11047270;26;20025;-78
2024/04/16 13:21:16;;;;;;;1.33;0.38;;;;;;;;;;11037882;26;20009;-77
2024/04/16 13:26:23;;;;;;;2.17;0.70;;;;;;;;;;11036601;26;20111;-78
2024/04/16 13:31:29;;;;;;;0.90;0.55;;;;;;;;;;11034734;26;20019;-77
2024/04/16 13:36:34;;;;;;;3.38;0.73;;;;;;;;;;10989005;26;20081;-77
2024/04/16 13:41:41;;;;;;;3.95;1.00;;;;;;;;;;11037237;26;20009;-77
2024/04/16 13:46:46;;;;;;;5.25;2.60;;;;;;;;;;11035671;26;20080;-78
2024/04/16 13:51:50;;;;;;;1.95;1.02;;;;;;;;;;11035687;26;20132;-74
2024/04/16 13:56:58;;;;;;;3.70;1.10;;;;;;;;;;11031478;26;20353;-74
2024/04/16 14:02:04;;;;;;;1.50;1.15;;;;;;;;;;11038925;26;20083;-75
2024/04/16 14:07:09;;;;;;;2.30;0.85;;;;;;;;;;11038076;26;20053;-75
2024/04/16 14:12:17;;;;;;;0.85;0.40;;;;;;;;;;11023358;26;21183;-74
2024/04/16 14:17:21;;;;;;;0.68;0.52;;;;;;;;;;11030245;26;21035;-74
2024/04/16 14:22:26;;;;;;;1.48;0.70;;;;;;;;;;11024882;26;20009;-74
2024/04/16 14:27:34;;;;;;;1.42;0.50;;;;;;;;;;11031427;26;20005;-74
2024/04/16 14:32:38;;;;;;;1.10;0.30;;;;;;;;;;11027068;26;20004;-74
2024/04/16 14:37:43;;;;;;;2.15;0.55;;;;;;;;;;11023331;26;20005;-76
2024/04/16 14:42:53;;;;;;;0.98;0.60;;;;;;;;;;11023078;26;20500;-75
2024/04/16 14:47:57;;;;;;;1.55;0.73;;;;;;;;;;11027818;26;21198;-75
2024/04/16 14:53:04;;;;;;;2.90;0.60;;;;;;;;;;11032449;26;20472;-75
2024/04/16 14:58:11;;;;;;;2.28;0.60;;;;;;;;;;11028412;26;20515;-74
2024/04/16 15:03:15;;;;;;;4.13;0.77;;;;;;;;;;11018691;26;20005;-74
2024/04/16 15:08:25;;;;;;;0.90;0.40;;;;;;;;;;10999341;26;20013;-74
2024/04/16 15:13:33;;;;;;;1.95;0.63;;;;;;;;;;11019709;26;20502;-74
2024/04/16 15:18:38;;;;;;;1.38;0.30;;;;;;;;;;11005231;26;20081;-74
2024/04/16 15:23:43;;;;;;;0.73;0.20;;;;;;;;;;11027146;26;20059;-73
2024/04/16 15:28:50;;;;;;;1.08;0.40;;;;;;;;;;11025968;26;20435;-74
2024/04/16 15:33:57;;;;;;;1.85;0.50;;;;;;;;;;10994902;26;20021;-75
2024/04/16 15:39:02;;;;;;;1.50;0.70;;;;;;;;;;11028263;26;20028;-75
2024/04/16 15:44:10;;;;;;;1.52;0.40;;;;;;;;;;11026030;26;20012;-76
2024/04/16 15:49:15;;;;;;;2.63;0.63;;;;;;;;;;11028759;26;20414;-75
2024/04/16 15:54:20;;;;;;;1.05;0.60;;;;;;;;;;11037413;26;21063;-75
2024/04/16 15:59:29;;;;;;;3.92;0.80;;;;;;;;;;11032847;26;20009;-76
2024/04/16 16:04:34;;;;;;;1.35;0.35;;;;;;;;;;11023490;26;20017;-74
2024/04/16 16:09:39;;;;;;;0.40;0.20;;;;;;;;;;11041464;26;20005;-74
2024/04/16 16:14:47;;;;;;;2.00;0.47;;;;;;;;;;11032387;26;20494;-74
2024/04/16 16:19:52;;;;;;;0.93;0.60;;;;;;;;;;11037544;26;20035;-73
2024/04/16 16:24:57;;;;;;;0.80;0.35;;;;;;;;;;11026861;26;20004;-74
2024/04/16 16:30:04;;;;;;;1.45;0.60;;;;;;;;;;11031566;26;20018;-74
2024/04/16 16:35:11;;;;;;;2.47;0.50;;;;;;;;;;11024593;26;20034;-75
2024/04/16 16:40:15;;;;;;;1.33;0.40;;;;;;;;;;11036870;26;20004;-76
2024/04/16 16:45:22;;;;;;;5.38;0.82;;;;;;;;;;11027917;26;20207;-76
2024/04/16 16:50:28;;;;;;;2.03;0.80;;;;;;;;;;11033034;26;20005;-76
2024/04/16 16:55:36;;;;;;;1.50;0.75;;;;;;;;;;11031569;26;20009;-73
2024/04/16 17:00:43;;;;;;;1.15;0.40;;;;;;;;;;11034772;26;20555;-74
2024/04/16 17:05:47;;;;;;;4.80;0.65;;;;;;;;;;11034140;26;20019;-74
2024/04/16 17:10:56;;;;;;;1.05;0.30;;;;;;;;;;11022377;26;20012;-75
2024/04/16 17:16:04;;;;;;;1.38;0.55;;;;;;;;;;11024280;26;20024;-75
2024/04/16 17:21:09;;;;;;;1.45;0.70;;;;;;;;;;11028875;26;20013;-75
2024/04/16 17:26:14;;;;;;;1.42;0.70;;;;;;;;;;11018602;26;20004;-74
2024/04/16 17:31:23;;;;;;;1.98;0.40;;;;;;;;;;11037410;26;20077;-76
2024/04/16 17:36:28;;;;;;;2.00;0.38;;;;;;;;;;11030654;26;20008;-75
2024/04/16 17:41:33;;;;;;;0.90;0.50;;;;;;;;;;11035347;26;20006;-74
2024/04/16 17:46:41;;;;;;;1.08;0.47;;;;;;;;;;11014762;26;20048;-74
2024/04/16 17:51:46;;;;;;;0.75;0.30;;;;;;;;;;11015836;26;20032;-74
2024/04/16 17:56:51;;;;;;;3.63;0.70;;;;;;;;;;11017408;26;20562;-74
2024/04/16 18:01:58;;;;;;;1.40;0.70;;;;;;;;;;11026070;26;20185;-75
2024/04/16 18:07:04;;;;;;;2.22;0.52;;;;;;;;;;11029918;26;20009;-76
2024/04/16 18:12:12;;;;;;;1.13;0.43;;;;;;;;;;11027731;26;20018;-74
2024/04/16 18:17:19;;;;;;;2.28;0.70;;;;;;;;;;11022991;26;20082;-74
2024/04/16 18:22:27;;;;;;;0.50;0.30;;;;;;;;;;11030536;26;20016;-73
2024/04/16 18:27:35;;;;;;;1.73;0.60;;;;;;;;;;11028212;26;20012;-73
2024/04/16 18:32:46;;;;;;;1.10;0.60;;;;;;;;;;11038076;26;20028;-75
2024/04/16 18:37:51;;;;;;;1.25;0.65;;;;;;;;;;11052799;26;20008;-74
2024/04/16 18:42:56;;;;;;;0.55;0.28;;;;;;;;;;11032923;26;20008;-75
2024/04/16 18:48:05;;;;;;;2.40;0.73;;;;;;;;;;11039739;26;20314;-75
2024/04/16 18:53:10;;;;;;;2.58;1.00;;;;;;;;;;11019618;26;20292;-74
2024/04/16 18:58:18;;;;;;;3.83;0.47;;;;;;;;;;11052367;26;20004;-74
2024/04/16 19:03:27;;;;;;;1.15;0.60;;;;;;;;;;11045723;26;20082;-74
2024/04/16 19:08:34;;;;;;;1.55;0.60;;;;;;;;;;11046553;26;20016;-74
2024/04/16 19:13:42;;;;;;;1.83;0.77;;;;;;;;;;11046717;26;20008;-74
2024/04/16 19:18:51;;;;;;;1.13;0.60;;;;;;;;;;11047003;26;20496;-77
2024/04/16 19:23:58;;;;;;;1.35;0.80;;;;;;;;;;11048385;26;20016;-75
2024/04/16 19:29:03;;;;;;;1.95;0.55;;;;;;;;;;11052726;26;20005;-75
2024/04/16 19:34:10;;;;;;;1.50;0.50;;;;;;;;;;11055592;26;20009;-74
2024/04/16 19:39:15;;;;;;;2.05;0.65;;;;;;;;;;11065683;26;20029;-75
2024/04/16 19:44:21;;;;;;;0.75;0.40;;;;;;;;;;11036070;26;20001;-77
2024/04/16 19:49:31;;;;;;;2.47;0.57;;;;;;;;;;11035774;26;20076;-74
2024/04/16 19:54:39;;;;;;;1.70;0.57;;;;;;;;;;11024812;26;20009;-75
2024/04/16 19:59:46;;;;;;;2.55;0.80;;;;;;;;;;11044678;26;20458;-74
2024/04/16 20:04:54;;;;;;;1.92;0.63;;;;;;;;;;11050367;26;20060;-73
2024/04/16 20:09:59;;;;;;;0.90;0.45;;;;;;;;;;11049741;26;20801;-75
2024/04/16 20:15:04;;;;;;;1.17;0.68;;;;;;;;;;11046259;26;20024;-75
2024/04/16 20:20:12;;;;;;;1.92;0.50;;;;;;;;;;11041150;26;20001;-74
2024/04/16 20:25:17;;;;;;;0.77;0.50;;;;;;;;;;11030806;26;20081;-74
2024/04/16 20:30:25;;;;;;;0.28;0.28;;;;;;;;;;11047230;26;20009;-75
2024/04/16 20:35:33;;;;;;;0.80;0.30;;;;;;;;;;11026169;26;20049;-74
2024/04/16 20:40:38;;;;;;;0.98;0.63;;;;;;;;;;11033979;26;20015;-74
2024/04/16 20:45:44;;;;;;;2.72;0.45;;;;;;;;;;11040172;26;20015;-74
2024/04/16 20:50:58;;;;;;;0.85;0.43;;;;;;;;;;11044041;26;20318;-73
2024/04/16 20:56:11;;;;;;;1.48;0.70;;;;;;;;;;11040546;26;20005;-75
2024/04/16 21:01:15;;;;;;;0.75;0.50;;;;;;;;;;11047975;26;20349;-74
2024/04/16 21:06:23;;;;;;;1.13;0.60;;;;;;;;;;11040716;26;20012;-75
2024/04/16 21:11:29;;;;;;;1.77;0.70;;;;;;;;;;11011773;26;20083;-75
2024/04/16 21:16:35;;;;;;;1.58;0.57;;;;;;;;;;11044059;26;20000;-74
2024/04/16 21:21:42;;;;;;;1.17;0.43;;;;;;;;;;11030040;26;20420;-74
2024/04/16 21:26:49;;;;;;;1.60;0.30;;;;;;;;;;11031678;26;20399;-74
2024/04/16 21:31:54;;;;;;;0.47;0.40;;;;;;;;;;11039126;26;20089;-75
2024/04/16 21:37:02;;;;;;;0.17;0.17;;;;;;;;;;11040125;26;20008;-75
2024/04/16 21:42:09;;;;;;;0.30;0.30;;;;;;;;;;11041990;26;20102;-75
2024/04/16 21:47:19;;;;;;;1.40;0.30;;;;;;;;;;11030534;26;20169;-74
2024/04/16 21:52:27;;;;;;;0.80;0.30;;;;;;;;;;11011452;26;20131;-73
2024/04/16 21:57:32;;;;;;;0.30;0.25;;;;;;;;;;11033395;26;20466;-76
2024/04/16 22:02:37;;;;;;;1.95;0.40;;;;;;;;;;11018116;26;20144;-74
2024/04/16 22:08:02;;;;;;;0.95;0.50;;;;;;;;;;11037146;26;20097;-75
2024/04/16 22:13:15;;;;;;;0.60;0.60;;;;;;;;;;11034282;26;20361;-74
2024/04/16 22:18:21;;;;;;;0.30;0.30;;;;;;;;;;11043108;26;20012;-74
2024/04/16 22:23:27;;;;;;;1.55;0.40;;;;;;;;;;11028476;26;20012;-75
2024/04/16 22:28:39;;;;;;;0.60;0.40;;;;;;;;;;11022462;26;20004;-74
2024/04/16 22:33:44;;;;;;;0.80;0.60;;;;;;;;;;11033004;26;20074;-73
2024/04/16 22:38:53;;;;;;;0.45;0.40;;;;;;;;;;11029732;26;20012;-74
2024/04/16 22:44:01;;;;;;;1.13;0.40;;;;;;;;;;11027734;26;20113;-74
2024/04/16 22:49:09;;;;;;;0.55;0.40;;;;;;;;;;11029568;26;20008;-73
2024/04/16 22:54:17;;;;;;;1.42;0.45;;;;;;;;;;11030215;26;20082;-76
2024/04/16 22:59:25;;;;;;;1.20;0.57;;;;;;;;;;11039556;26;20646;-74
2024/04/16 23:04:30;;;;;;;0.52;0.43;;;;;;;;;;11031776;26;20001;-74
2024/04/16 23:09:35;;;;;;;1.63;0.70;;;;;;;;;;11027749;26;20028;-75
2024/04/16 23:14:42;;;;;;;0.22;0.22;;;;;;;;;;11038084;26;20124;-75
2024/04/16 23:19:49;;;;;;;0.45;0.40;;;;;;;;;;11043122;26;21102;-75
2024/04/16 23:24:55;;;;;;;1.83;0.75;;;;;;;;;;11029958;26;20290;-74
2024/04/16 23:30:03;;;;;;;0.47;0.35;;;;;;;;;;11029460;26;20033;-75
2024/04/16 23:35:09;;;;;;;0.35;0.32;;;;;;;;;;11034312;26;20056;-74
2024/04/16 23:40:14;;;;;;;1.35;0.70;;;;;;;;;;11016329;26;20008;-73
2024/04/16 23:45:22;;;;;;;0.60;0.50;;;;;;;;;;11007892;26;20016;-75
2024/04/16 23:50:27;;;;;;;0.50;0.40;;;;;;;;;;11031729;26;20020;-74
2024/04/16 23:55:33;;;;;;;0.50;0.50;;;;;;;;;;11039869;26;20064;-73
